Time;durP1;ratioP1;P1;durP2;ratioP2;P2;SDS_P1;SDS_P2;PMS_P1;PMS_P2;Temp;Humidity;BMP_temperature;BMP_pressure;BME280_temperature;BME280_humidity;BME280_pressure;Samples;Min_cycle;Max_cycle;Signal;HPM_P1;HPM_P2
2021/12/18 00:02:03;;;;;;;4.78;3.53;;;11.10;99.80;;;;;;5034474;28;20053;-80
2021/12/18 00:04:28;;;;;;;5.53;4.38;;;11.10;99.80;;;;;;5034272;28;20033;-80
2021/12/18 00:06:55;;;;;;;6.75;4.75;;;11.20;99.70;;;;;;5034199;28;20544;-80
2021/12/18 00:09:21;;;;;;;6.75;4.63;;;11.10;99.50;;;;;;5033844;28;20033;-80
2021/12/18 00:11:48;;;;;;;6.18;4.70;;;11.10;99.70;;;;;;5034327;28;20419;-80
2021/12/18 00:14:15;;;;;;;6.70;4.22;;;11.00;99.70;;;;;;5034212;28;20029;-80
2021/12/18 00:16:41;;;;;;;5.97;4.47;;;11.00;99.80;;;;;;5035015;28;20030;-79
2021/12/18 00:19:06;;;;;;;5.72;4.20;;;11.00;99.80;;;;;;5041779;28;20025;-80
2021/12/18 00:21:36;;;;;;;6.13;4.50;;;11.00;99.90;;;;;;5046787;28;20384;-80
2021/12/18 00:24:03;;;;;;;5.00;4.07;;;11.10;99.90;;;;;;5034230;28;20108;-80
2021/12/18 00:26:29;;;;;;;8.73;4.45;;;11.10;99.80;;;;;;5033788;28;20025;-80
2021/12/18 00:28:55;;;;;;;6.22;4.22;;;11.20;99.70;;;;;;5033824;28;20025;-79
2021/12/18 00:31:20;;;;;;;5.03;4.10;;;11.20;99.70;;;;;;5033696;28;20468;-80
2021/12/18 00:33:46;;;;;;;7.05;4.75;;;11.20;99.60;;;;;;5033723;28;20025;-80
2021/12/18 00:36:11;;;;;;;6.68;4.30;;;11.30;99.60;;;;;;5033643;28;20045;-79
2021/12/18 00:38:39;;;;;;;5.47;4.28;;;11.30;99.50;;;;;;5033839;28;20083;-80
2021/12/18 00:43:34;;;;;;;6.85;4.45;;;11.30;99.30;;;;;;5033909;28;20053;-80
2021/12/18 00:45:59;;;;;;;6.28;4.60;;;11.30;99.20;;;;;;5033378;28;20073;-80
2021/12/18 00:48:26;;;;;;;7.07;5.38;;;11.20;99.20;;;;;;5033714;28;20040;-80
2021/12/18 00:50:52;;;;;;;7.90;5.35;;;11.10;99.30;;;;;;5033507;28;20018;-80
2021/12/18 00:53:18;;;;;;;7.25;4.90;;;11.10;99.50;;;;;;5033371;28;20054;-81
2021/12/18 00:55:46;;;;;;;5.97;4.63;;;11.00;99.60;;;;;;5033608;28;20627;-81
2021/12/18 00:58:12;;;;;;;6.72;4.95;;;11.00;99.90;;;;;;5033548;28;20035;-81
2021/12/18 01:00:41;;;;;;;6.13;4.82;;;10.90;99.90;;;;;;5033774;28;20076;-81
2021/12/18 01:03:16;;;;;;;6.60;4.75;;;10.90;99.90;;;;;;5033888;28;20034;-81
2021/12/18 01:05:42;;;;;;;11.10;5.32;;;10.90;99.90;;;;;;5033656;28;20028;-81
2021/12/18 01:08:08;;;;;;;8.25;5.20;;;10.80;99.90;;;;;;5033788;28;20533;-81
2021/12/18 01:13:08;;;;;;;7.22;5.10;;;10.80;99.90;;;;;;5034509;28;20484;-81
2021/12/18 01:15:39;;;;;;;7.32;5.10;;;10.70;99.90;;;;;;5049708;28;20026;-81
2021/12/18 01:23:34;;;;;;;5.88;3.97;;;10.70;99.90;;;;;;5037098;28;20064;-80
2021/12/18 01:26:00;;;;;;;6.93;4.43;;;10.80;99.90;;;;;;5037379;28;20068;-80
2021/12/18 01:28:26;;;;;;;5.53;4.05;;;10.90;99.90;;;;;;5036854;28;20037;-80
2021/12/18 01:30:52;;;;;;;6.18;4.70;;;10.90;99.90;;;;;;5037314;28;20024;-80
2021/12/18 01:33:18;;;;;;;5.93;4.38;;;11.00;99.90;;;;;;5037424;28;20025;-80
2021/12/18 01:35:44;;;;;;;6.40;4.43;;;11.10;99.90;;;;;;5037068;28;20017;-80
2021/12/18 01:38:11;;;;;;;5.22;4.10;;;11.10;99.80;;;;;;5036865;28;20017;-80
2021/12/18 01:40:37;;;;;;;5.40;4.25;;;11.10;99.70;;;;;;5036970;28;20369;-80
2021/12/18 01:53:24;;;;;;;6.75;4.60;;;10.90;99.60;;;;;;5036663;28;20052;-78
2021/12/18 01:55:51;;;;;;;9.55;4.95;;;10.90;99.80;;;;;;5036689;28;20055;-79
2021/12/18 01:58:21;;;;;;;8.55;4.50;;;10.90;99.80;;;;;;5036889;28;20033;-79
2021/12/18 02:00:49;;;;;;;7.95;5.00;;;10.90;99.90;;;;;;5036652;28;20100;-79
2021/12/18 02:03:15;;;;;;;6.32;4.45;;;10.90;99.90;;;;;;5036629;28;20064;-79
2021/12/18 02:05:41;;;;;;;9.27;5.30;;;10.90;99.90;;;;;;5037070;28;20045;-79
2021/12/18 02:08:07;;;;;;;8.85;4.90;;;11.00;99.90;;;;;;5036879;28;20484;-79
2021/12/18 02:10:45;;;;;;;6.70;5.20;;;11.00;99.90;;;;;;5045994;28;20029;-80
2021/12/18 02:21:21;;;;;;;8.90;5.35;;;10.90;99.90;;;;;;5036474;28;20028;-80
2021/12/18 02:23:47;;;;;;;8.77;6.18;;;10.70;99.90;;;;;;5036036;28;20084;-80
2021/12/18 02:26:13;;;;;;;9.48;6.20;;;10.60;99.90;;;;;;5036283;28;20026;-81
2021/12/18 02:28:42;;;;;;;12.02;6.75;;;10.50;99.90;;;;;;5036037;28;20037;-81
2021/12/18 02:31:07;;;;;;;8.30;5.88;;;10.20;99.90;;;;;;5036135;28;20096;-81
2021/12/18 02:33:33;;;;;;;9.10;6.10;;;10.20;99.90;;;;;;5035552;28;20064;-82
2021/12/18 02:36:01;;;;;;;7.55;5.75;;;10.30;99.90;;;;;;5035763;28;20504;-81
2021/12/18 02:41:39;;;;;;;8.90;6.93;;;10.50;99.90;;;;;;5024582;28;20396;-81
2021/12/18 02:44:07;;;;;;;8.02;6.25;;;10.60;99.90;;;;;;5035851;28;20456;-81
2021/12/18 02:46:33;;;;;;;9.45;6.90;;;10.70;99.90;;;;;;5035476;28;20048;-81
2021/12/18 02:49:09;;;;;;;10.48;6.88;;;10.70;99.90;;;;;;5035764;28;20033;-81
2021/12/18 02:51:35;;;;;;;8.88;6.32;;;10.60;99.90;;;;;;5036088;28;20491;-80
2021/12/18 02:54:00;;;;;;;8.43;6.35;;;10.50;99.90;;;;;;5035399;28;20049;-81
2021/12/18 02:56:26;;;;;;;10.98;6.93;;;10.40;99.90;;;;;;5035556;28;20030;-81
2021/12/18 02:58:56;;;;;;;9.00;6.35;;;10.40;99.90;;;;;;5035841;28;20021;-81
2021/12/18 03:01:24;;;;;;;10.55;6.47;;;10.20;99.90;;;;;;5035723;28;20033;-80
2021/12/18 03:03:51;;;;;;;8.82;6.43;;;10.20;99.90;;;;;;5035860;28;20072;-81
2021/12/18 03:25:24;;;;;;;8.25;6.47;;;10.10;99.90;;;;;;5035098;28;20083;-83
2021/12/18 03:27:28;;;;;;;8.57;6.35;;;10.10;99.90;;;;;;5031773;28;20073;-82
2021/12/18 03:29:55;;;;;;;9.45;6.50;;;10.10;99.90;;;;;;5035224;28;20044;-82
2021/12/18 03:32:21;;;;;;;11.15;7.40;;;10.20;99.90;;;;;;5034857;28;20556;-82
2021/12/18 03:34:47;;;;;;;12.40;6.50;;;10.20;99.90;;;;;;5034591;28;20029;-82
2021/12/18 03:37:13;;;;;;;10.23;6.80;;;10.20;99.90;;;;;;5034962;28;20120;-82
2021/12/18 03:39:39;;;;;;;10.48;6.93;;;10.10;99.90;;;;;;5034906;28;20484;-82
2021/12/18 03:42:06;;;;;;;9.70;6.78;;;10.00;99.90;;;;;;5034889;28;20075;-83
2021/12/18 03:44:32;;;;;;;9.98;6.38;;;9.90;99.90;;;;;;5033669;28;20461;-82
2021/12/18 03:46:58;;;;;;;8.75;6.18;;;9.80;99.90;;;;;;5034960;28;20052;-83
2021/12/18 03:49:24;;;;;;;7.63;5.68;;;9.70;99.90;;;;;;5034835;28;20158;-83
2021/12/18 03:51:50;;;;;;;7.18;4.97;;;9.70;99.90;;;;;;5034866;28;20461;-81
2021/12/18 03:54:15;;;;;;;6.57;4.30;;;9.60;99.90;;;;;;5034274;28;20061;-82
2021/12/18 03:56:41;;;;;;;8.93;4.70;;;9.60;99.90;;;;;;5034995;28;20461;-82
2021/12/18 03:59:07;;;;;;;7.50;5.43;;;9.80;99.90;;;;;;5034536;28;20469;-82
2021/12/18 04:01:32;;;;;;;8.23;5.78;;;9.80;99.90;;;;;;5035766;28;20032;-83
2021/12/18 04:03:58;;;;;;;9.50;5.15;;;9.80;99.90;;;;;;5038687;28;20026;-82
2021/12/18 04:06:24;;;;;;;8.32;5.65;;;9.80;99.90;;;;;;5057411;28;20013;-81
2021/12/18 04:08:49;;;;;;;7.80;5.43;;;9.90;99.90;;;;;;5050645;28;20435;-83
2021/12/18 04:11:15;;;;;;;8.43;5.88;;;9.90;99.90;;;;;;5034404;28;20022;-82
2021/12/18 04:13:44;;;;;;;8.20;5.95;;;10.00;99.90;;;;;;5034443;28;20028;-82
2021/12/18 04:16:11;;;;;;;9.52;5.97;;;10.00;99.90;;;;;;5034057;28;20388;-81
2021/12/18 04:18:38;;;;;;;11.25;6.07;;;10.00;99.90;;;;;;5034456;28;20075;-82
2021/12/18 04:21:04;;;;;;;8.43;5.75;;;10.10;99.90;;;;;;5034138;28;20029;-82
2021/12/18 04:23:30;;;;;;;8.20;5.50;;;10.10;99.90;;;;;;5034004;28;20045;-82
2021/12/18 04:25:56;;;;;;;8.98;6.00;;;10.10;99.90;;;;;;5033941;28;20503;-82
2021/12/18 04:28:23;;;;;;;8.20;5.47;;;10.20;99.90;;;;;;5033883;28;20041;-82
2021/12/18 04:30:49;;;;;;;8.80;6.15;;;10.10;99.90;;;;;;5034042;28;20022;-81
2021/12/18 04:33:15;;;;;;;11.00;6.55;;;10.10;99.90;;;;;;5033750;28;20030;-83
2021/12/18 04:35:41;;;;;;;12.35;7.10;;;10.00;99.90;;;;;;5033573;28;20484;-83
2021/12/18 04:38:06;;;;;;;9.73;6.25;;;10.00;99.90;;;;;;5034018;28;20057;-83
2021/12/18 04:40:34;;;;;;;10.38;6.30;;;10.00;99.90;;;;;;5033937;28;20025;-82
2021/12/18 04:42:59;;;;;;;10.10;6.22;;;10.00;99.90;;;;;;5033796;28;20091;-82
2021/12/18 04:45:25;;;;;;;11.68;6.32;;;10.10;99.90;;;;;;5033960;28;20017;-82
2021/12/18 04:47:51;;;;;;;10.27;6.18;;;10.20;99.90;;;;;;5034015;28;20150;-82
2021/12/18 04:50:17;;;;;;;10.55;6.80;;;10.20;99.90;;;;;;5033894;28;20078;-82
2021/12/18 04:52:42;;;;;;;9.05;6.07;;;10.20;99.90;;;;;;5033398;28;20048;-84
2021/12/18 04:55:08;;;;;;;9.80;6.20;;;10.20;99.90;;;;;;5033831;28;20033;-82
2021/12/18 04:57:34;;;;;;;8.95;5.93;;;10.30;99.90;;;;;;5033582;28;20104;-82
2021/12/18 05:00:00;;;;;;;9.82;5.95;;;10.40;99.90;;;;;;5034205;28;20595;-82
2021/12/18 05:02:36;;;;;;;8.60;5.60;;;10.40;99.90;;;;;;5049002;28;20028;-83
2021/12/18 05:05:03;;;;;;;8.73;5.88;;;10.50;99.90;;;;;;5056239;28;20055;-82
2021/12/18 05:07:29;;;;;;;8.50;5.90;;;10.50;99.90;;;;;;5033313;28;20040;-83
2021/12/18 05:09:55;;;;;;;9.40;6.20;;;10.60;99.90;;;;;;5033808;28;20025;-81
2021/12/18 05:12:20;;;;;;;8.50;6.13;;;10.70;99.90;;;;;;5033462;28;20033;-81
2021/12/18 05:14:46;;;;;;;11.13;5.93;;;10.70;99.90;;;;;;5033265;28;20029;-81
2021/12/18 05:17:12;;;;;;;9.05;6.25;;;10.80;99.90;;;;;;5033477;28;20026;-81
2021/12/18 05:19:38;;;;;;;8.55;5.82;;;10.80;99.90;;;;;;5033239;28;20559;-81
2021/12/18 05:22:05;;;;;;;9.30;5.38;;;10.70;99.90;;;;;;5033145;28;20484;-81
2021/12/18 05:24:31;;;;;;;7.65;5.25;;;10.60;99.90;;;;;;5033178;28;20033;-81
2021/12/18 05:26:57;;;;;;;7.07;4.70;;;10.50;99.90;;;;;;5033412;28;20087;-81
2021/12/18 05:29:22;;;;;;;7.75;4.65;;;10.60;99.90;;;;;;5032800;28;20109;-82
2021/12/18 05:31:49;;;;;;;7.50;3.60;;;10.60;99.90;;;;;;5033468;28;20104;-82
2021/12/18 05:34:22;;;;;;;7.40;3.83;;;10.60;99.90;;;;;;5033275;28;20033;-82
2021/12/18 05:39:28;;;;;;;6.50;3.90;;;10.60;99.90;;;;;;5033269;28;20033;-82
2021/12/18 05:41:56;;;;;;;7.50;3.38;;;10.50;99.90;;;;;;5032976;28;20489;-81
2021/12/18 05:44:24;;;;;;;5.38;3.80;;;10.50;99.90;;;;;;5032865;28;20396;-81
2021/12/18 05:46:51;;;;;;;5.45;3.58;;;10.40;99.90;;;;;;5033315;28;20026;-81
2021/12/18 05:49:17;;;;;;;4.80;3.20;;;10.40;99.90;;;;;;5033122;28;20419;-81
2021/12/18 05:51:43;;;;;;;8.23;4.10;;;10.40;99.90;;;;;;5033674;28;20070;-81
2021/12/18 05:54:10;;;;;;;10.07;3.78;;;10.40;99.90;;;;;;5032955;28;20045;-81
2021/12/18 05:56:36;;;;;;;6.65;3.42;;;10.40;99.90;;;;;;5035285;28;20037;-81
2021/12/18 05:59:02;;;;;;;5.30;3.05;;;10.50;99.90;;;;;;5039416;28;20037;-81
2021/12/18 06:01:28;;;;;;;4.72;2.95;;;10.50;99.90;;;;;;5051803;28;20025;-81
2021/12/18 06:03:54;;;;;;;4.15;2.90;;;10.50;99.90;;;;;;5035434;28;20122;-82
2021/12/18 06:06:23;;;;;;;3.72;2.40;;;10.60;99.90;;;;;;5032892;28;20028;-82
2021/12/18 06:08:49;;;;;;;2.58;1.77;;;10.50;99.90;;;;;;5036328;28;20034;-82
2021/12/18 06:11:17;;;;;;;2.85;2.00;;;10.40;99.90;;;;;;5036721;28;20028;-82
2021/12/18 06:13:44;;;;;;;2.90;1.60;;;10.40;99.90;;;;;;5036306;28;20033;-80
2021/12/18 06:16:10;;;;;;;2.00;1.60;;;10.50;99.90;;;;;;5036677;28;20594;-80
2021/12/18 06:18:40;;;;;;;1.45;0.93;;;10.50;99.90;;;;;;5036362;28;20034;-82
2021/12/18 06:21:07;;;;;;;1.45;1.00;;;10.50;99.90;;;;;;5036660;28;20416;-82
2021/12/18 06:23:33;;;;;;;1.35;1.00;;;10.50;99.90;;;;;;5036070;28;20032;-82
2021/12/18 06:25:59;;;;;;;2.20;0.93;;;10.50;99.90;;;;;;5036198;28;20112;-82
2021/12/18 06:28:25;;;;;;;4.82;1.17;;;10.50;99.70;;;;;;5036239;28;20033;-81
2021/12/18 06:30:51;;;;;;;1.40;1.00;;;10.60;99.80;;;;;;5036144;28;20026;-82
2021/12/18 06:33:17;;;;;;;3.85;1.00;;;10.60;99.60;;;;;;5036279;28;20443;-82
2021/12/18 06:35:42;;;;;;;1.50;0.88;;;10.50;99.40;;;;;;5036157;28;20018;-82
2021/12/18 06:38:08;;;;;;;2.35;1.20;;;10.60;99.40;;;;;;5036157;28;20032;-82
2021/12/18 06:40:34;;;;;;;1.58;0.95;;;10.50;99.30;;;;;;5036008;28;20077;-83
2021/12/18 06:42:59;;;;;;;1.65;1.05;;;10.50;99.20;;;;;;5036053;28;20022;-83
2021/12/18 06:45:25;;;;;;;1.27;0.82;;;10.40;99.00;;;;;;5035914;28;20392;-82
2021/12/18 06:47:51;;;;;;;0.93;0.50;;;10.30;99.10;;;;;;5035849;28;20030;-83
2021/12/18 06:50:16;;;;;;;1.50;0.45;;;10.30;99.10;;;;;;5035992;28;20530;-83
2021/12/18 06:52:42;;;;;;;3.53;0.50;;;10.20;99.10;;;;;;5035434;28;20143;-84
2021/12/18 06:55:08;;;;;;;1.48;0.82;;;10.10;99.10;;;;;;5037331;28;20026;-83
2021/12/18 06:57:34;;;;;;;4.65;0.68;;;9.90;99.50;;;;;;5048754;28;20085;-81
2021/12/18 07:00:00;;;;;;;1.73;0.50;;;9.80;99.90;;;;;;5047486;28;20022;-81
2021/12/18 07:02:25;;;;;;;3.55;0.60;;;10.00;99.90;;;;;;5035961;28;20033;-81
2021/12/18 07:04:51;;;;;;;1.08;0.63;;;10.00;99.90;;;;;;5035205;28;20021;-81
2021/12/18 07:07:17;;;;;;;1.25;0.70;;;10.00;99.90;;;;;;5035134;28;20116;-81
2021/12/18 07:09:43;;;;;;;1.48;0.50;;;10.00;99.70;;;;;;5035315;28;20037;-81
2021/12/18 07:12:10;;;;;;;5.20;0.60;;;9.90;99.90;;;;;;5035515;28;20029;-81
2021/12/18 07:14:36;;;;;;;1.13;0.43;;;10.00;99.90;;;;;;5035520;28;20022;-81
2021/12/18 07:17:03;;;;;;;0.82;0.47;;;10.10;99.70;;;;;;5034923;28;20029;-81
2021/12/18 07:19:28;;;;;;;1.67;0.35;;;10.10;99.90;;;;;;5035215;28;20025;-81
2021/12/18 07:21:54;;;;;;;1.00;0.43;;;10.10;99.80;;;;;;5034918;28;20431;-90
2021/12/18 07:24:20;;;;;;;1.27;0.40;;;10.20;99.90;;;;;;5035378;28;20128;-84
2021/12/18 07:26:46;;;;;;;2.55;0.30;;;10.20;99.90;;;;;;5035174;28;20026;-82
2021/12/18 07:29:12;;;;;;;2.22;0.30;;;10.30;99.90;;;;;;5034976;28;20032;-79
2021/12/18 07:31:37;;;;;;;0.80;0.30;;;10.40;99.70;;;;;;5022473;28;20377;-77
2021/12/18 07:34:03;;;;;;;1.05;0.43;;;10.50;99.90;;;;;;5014768;28;20184;-76
2021/12/18 07:36:29;;;;;;;2.83;0.32;;;10.50;99.40;;;;;;5014698;28;20038;-75
2021/12/18 07:38:55;;;;;;;3.10;0.30;;;10.40;99.10;;;;;;5014715;28;20148;-77
2021/12/18 07:41:20;;;;;;;2.95;0.45;;;10.40;99.00;;;;;;5014925;28;20045;-76
2021/12/18 07:43:46;;;;;;;0.98;0.22;;;10.50;99.40;;;;;;5014578;28;20381;-77
2021/12/18 07:46:12;;;;;;;0.77;0.35;;;10.30;97.80;;;;;;5016176;28;20033;-77
2021/12/18 07:48:37;;;;;;;8.13;0.38;;;10.10;98.00;;;;;;5032280;28;20449;-77
2021/12/18 07:51:03;;;;;;;4.75;0.30;;;9.90;98.80;;;;;;5013618;28;20030;-76
2021/12/18 07:53:29;;;;;;;2.45;0.40;;;10.00;99.00;;;;;;5027892;28;20512;-77
2021/12/18 07:55:55;;;;;;;1.88;0.40;;;9.90;98.80;;;;;;5044397;28;20434;-77
2021/12/18 07:58:20;;;;;;;0.50;0.20;;;9.70;99.00;;;;;;5034231;28;20029;-76
2021/12/18 08:00:46;;;;;;;1.88;0.28;;;9.50;99.00;;;;;;5034372;28;20091;-75
2021/12/18 08:03:12;;;;;;;0.60;0.28;;;9.40;99.60;;;;;;5034040;28;20484;-74
2021/12/18 08:05:37;;;;;;;0.80;0.30;;;9.40;99.90;;;;;;5033983;28;20033;-75
2021/12/18 08:08:03;;;;;;;0.73;0.30;;;9.40;99.90;;;;;;5034169;28;20037;-76
2021/12/18 08:10:29;;;;;;;1.85;0.57;;;9.50;99.90;;;;;;5034172;28;20028;-76
2021/12/18 08:12:54;;;;;;;1.10;0.13;;;9.50;99.90;;;;;;5033808;28;20377;-77
2021/12/18 08:15:20;;;;;;;0.80;0.17;;;9.40;99.50;;;;;;5034089;28;20074;-76
2021/12/18 08:17:46;;;;;;;0.40;0.15;;;9.30;99.60;;;;;;5030484;28;20157;-76
2021/12/18 08:20:12;;;;;;;1.55;0.13;;;9.40;99.80;;;;;;5033166;28;20022;-77
2021/12/18 08:22:37;;;;;;;0.98;0.28;;;9.50;99.90;;;;;;5033465;28;20025;-78
2021/12/18 08:25:05;;;;;;;0.65;0.30;;;9.60;99.90;;;;;;5033499;28;20120;-79
2021/12/18 08:27:31;;;;;;;0.70;0.30;;;9.80;99.90;;;;;;5033778;28;20061;-77
2021/12/18 08:29:56;;;;;;;0.60;0.20;;;10.00;99.90;;;;;;5033181;28;20481;-77
2021/12/18 08:32:22;;;;;;;3.35;0.15;;;10.10;99.90;;;;;;5033500;28;20057;-80
2021/12/18 08:34:48;;;;;;;0.68;0.17;;;10.10;99.70;;;;;;5033890;28;20021;-78
2021/12/18 08:37:14;;;;;;;0.40;0.10;;;10.20;99.80;;;;;;5033838;28;20468;-83
2021/12/18 08:39:40;;;;;;;1.35;0.10;;;10.30;99.70;;;;;;5033839;28;20112;-79
2021/12/18 08:42:06;;;;;;;2.42;0.20;;;10.40;99.50;;;;;;5033138;28;20033;-82
2021/12/18 08:44:35;;;;;;;2.05;0.30;;;10.40;99.70;;;;;;5033218;28;20029;-79
2021/12/18 08:47:01;;;;;;;0.80;0.30;;;10.50;99.90;;;;;;5032800;28;20029;-79
2021/12/18 08:49:27;;;;;;;3.25;0.32;;;10.60;99.70;;;;;;5045912;28;20117;-79
2021/12/18 08:51:54;;;;;;;1.60;0.30;;;10.60;99.50;;;;;;5045756;28;20108;-79
2021/12/18 08:54:20;;;;;;;0.47;0.10;;;10.70;99.50;;;;;;5031312;28;20045;-78
2021/12/18 08:56:46;;;;;;;0.93;0.20;;;10.80;99.90;;;;;;5033005;28;20028;-75
2021/12/18 08:59:12;;;;;;;0.60;0.32;;;10.90;99.90;;;;;;5032719;28;20026;-76
2021/12/18 09:01:37;;;;;;;2.53;0.20;;;11.00;99.80;;;;;;5033582;28;20028;-77
2021/12/18 09:04:03;;;;;;;1.88;0.40;;;11.00;99.10;;;;;;5033067;28;20030;-76
2021/12/18 09:06:29;;;;;;;0.57;0.30;;;10.90;98.70;;;;;;5033268;28;20112;-77
2021/12/18 09:08:55;;;;;;;1.42;0.30;;;10.90;97.90;;;;;;5032948;28;20168;-77
2021/12/18 09:11:20;;;;;;;1.00;0.40;;;10.60;96.70;;;;;;5033345;28;20025;-78
2021/12/18 09:13:47;;;;;;;0.75;0.43;;;10.40;96.90;;;;;;5033265;28;20033;-80
2021/12/18 09:16:13;;;;;;;0.70;0.20;;;10.00;97.20;;;;;;5033290;28;20028;-80
2021/12/18 09:18:38;;;;;;;0.40;0.20;;;9.90;97.50;;;;;;5033025;28;20017;-84
2021/12/18 09:21:04;;;;;;;0.45;0.20;;;9.70;97.70;;;;;;5033472;28;20028;-78
2021/12/18 09:23:30;;;;;;;2.53;0.20;;;9.40;98.30;;;;;;5033072;28;20076;-79
2021/12/18 09:25:56;;;;;;;0.70;0.40;;;9.40;98.60;;;;;;5033273;28;20064;-78
2021/12/18 09:28:22;;;;;;;1.50;0.30;;;9.30;98.80;;;;;;5032964;28;20037;-78
2021/12/18 09:30:47;;;;;;;0.43;0.20;;;9.30;99.00;;;;;;5032981;28;20033;-78
2021/12/18 09:33:16;;;;;;;1.20;0.50;;;9.20;99.20;;;;;;5033161;28;20031;-82
2021/12/18 09:35:41;;;;;;;0.90;0.47;;;9.30;99.30;;;;;;5033316;28;20040;-80
2021/12/18 09:38:07;;;;;;;0.98;0.75;;;9.40;99.20;;;;;;5033391;28;20365;-76
2021/12/18 09:40:33;;;;;;;3.55;0.73;;;9.30;99.10;;;;;;5033199;28;20053;-73
2021/12/18 09:42:59;;;;;;;3.22;0.30;;;9.10;99.30;;;;;;5035061;28;20053;-73
2021/12/18 09:45:25;;;;;;;3.30;0.77;;;8.70;99.80;;;;;;5036680;28;20527;-73
2021/12/18 09:47:51;;;;;;;2.17;0.68;;;8.50;99.90;;;;;;5037017;28;20040;-75
2021/12/18 09:50:20;;;;;;;0.93;0.45;;;8.40;99.90;;;;;;5036604;28;20068;-75
2021/12/18 09:52:47;;;;;;;2.38;1.85;;;8.30;99.90;;;;;;5035982;28;20057;-75
2021/12/18 09:55:13;;;;;;;0.80;0.60;;;8.30;99.90;;;;;;5036457;28;20421;-74
2021/12/18 09:57:40;;;;;;;3.08;0.30;;;8.40;99.90;;;;;;5036713;28;20029;-75
2021/12/18 10:00:13;;;;;;;0.63;0.30;;;8.60;99.90;;;;;;5036349;28;20383;-75
2021/12/18 10:02:39;;;;;;;;;;;8.80;99.90;;;;;;5036871;28;20108;-74
2021/12/18 10:05:05;;;;;;;0.80;0.50;;;8.80;99.90;;;;;;5028836;28;19996;-76
2021/12/18 10:07:31;;;;;;;1.85;0.38;;;8.90;99.90;;;;;;5035367;28;20073;-75
2021/12/18 10:10:00;;;;;;;5.40;0.43;;;9.00;99.90;;;;;;5036080;28;20057;-75
2021/12/18 10:12:32;;;;;;;1.17;0.47;;;8.90;99.90;;;;;;5035973;28;20392;-74
2021/12/18 10:15:01;;;;;;;0.85;0.50;;;9.10;99.90;;;;;;5036314;28;20035;-75
2021/12/18 10:17:39;;;;;;;2.15;0.95;;;9.20;99.90;;;;;;5036152;28;20029;-75
2021/12/18 10:20:11;;;;;;;2.40;0.30;;;9.40;99.90;;;;;;5035973;28;20033;-75
2021/12/18 10:22:44;;;;;;;0.75;0.40;;;9.60;99.90;;;;;;5035818;28;20021;-74
2021/12/18 10:25:11;;;;;;;4.30;0.57;;;9.70;99.90;;;;;;5036115;28;20026;-74
2021/12/18 10:27:38;;;;;;;1.17;0.57;;;9.80;99.90;;;;;;5035899;28;20417;-75
2021/12/18 10:30:11;;;;;;;1.10;0.50;;;10.00;99.90;;;;;;5035649;28;20361;-75
2021/12/18 10:32:37;;;;;;;3.63;0.50;;;10.00;99.40;;;;;;5035541;28;20021;-74
2021/12/18 10:35:03;;;;;;;2.75;0.47;;;9.90;98.70;;;;;;5034317;28;20063;-76
2021/12/18 10:37:30;;;;;;;2.15;0.47;;;9.90;99.20;;;;;;5035178;28;20034;-75
2021/12/18 10:40:06;;;;;;;1.65;0.30;;;10.00;99.50;;;;;;5035048;28;20063;-75
2021/12/18 10:42:45;;;;;;;0.77;0.40;;;10.10;99.20;;;;;;5035167;28;20040;-77
2021/12/18 10:45:19;;;;;;;2.17;0.50;;;10.10;98.10;;;;;;5032121;28;20025;-78
2021/12/18 10:47:56;;;;;;;1.30;0.68;;;10.00;98.30;;;;;;5035086;28;20037;-76
2021/12/18 10:50:36;;;;;;;0.93;0.50;;;9.90;97.60;;;;;;5031978;28;20745;-76
2021/12/18 10:53:14;;;;;;;3.20;0.30;;;9.70;98.20;;;;;;5026631;28;20056;-77
2021/12/18 10:55:40;;;;;;;1.45;0.40;;;9.80;98.60;;;;;;5034995;28;20029;-76
2021/12/18 10:58:11;;;;;;;1.00;0.52;;;9.90;98.70;;;;;;5034978;28;20499;-78
2021/12/18 11:00:50;;;;;;;1.10;0.60;;;9.70;97.20;;;;;;5034608;28;20029;-80
2021/12/18 11:03:17;;;;;;;1.45;0.60;;;9.40;97.30;;;;;;5034893;28;20029;-78
2021/12/18 11:05:43;;;;;;;1.60;0.65;;;9.10;98.00;;;;;;5033613;28;20091;-80
2021/12/18 11:08:12;;;;;;;1.10;0.65;;;9.00;98.50;;;;;;5034684;28;20443;-77
2021/12/18 11:11:05;;;;;;;1.77;0.80;;;9.00;98.90;;;;;;5033474;28;20083;-78
2021/12/18 11:13:38;;;;;;;1.10;0.57;;;9.00;99.30;;;;;;5034438;28;20029;-83
2021/12/18 11:16:04;;;;;;;0.90;0.60;;;9.30;99.40;;;;;;5031249;28;20028;-81
2021/12/18 11:18:33;;;;;;;1.30;0.50;;;9.40;99.20;;;;;;5034856;28;20044;-88
2021/12/18 11:20:59;;;;;;;1.48;0.90;;;9.40;98.60;;;;;;5032920;28;20026;-79
2021/12/18 11:23:50;;;;;;;0.75;0.50;;;9.30;98.70;;;;;;5033149;28;20036;-80
2021/12/18 11:26:18;;;;;;;1.13;0.68;;;9.50;99.00;;;;;;5032408;28;20033;-81
2021/12/18 11:28:48;;;;;;;1.42;0.70;;;9.40;98.50;;;;;;5033491;28;20049;-80
2021/12/18 11:31:14;;;;;;;1.70;1.08;;;9.30;98.60;;;;;;5033583;28;20032;-78
2021/12/18 11:33:39;;;;;;;1.13;0.70;;;9.30;98.70;;;;;;5033310;28;20384;-78
2021/12/18 11:36:07;;;;;;;1.00;0.68;;;9.40;98.90;;;;;;5032365;28;20483;-77
2021/12/18 11:38:34;;;;;;;0.90;0.50;;;9.40;98.80;;;;;;5035500;28;20050;-79
2021/12/18 11:41:00;;;;;;;0.95;0.60;;;9.40;98.80;;;;;;5035154;28;20094;-79
2021/12/18 11:43:37;;;;;;;1.50;0.60;;;9.40;98.40;;;;;;5033943;28;20033;-81
2021/12/18 11:46:30;;;;;;;1.20;0.60;;;9.30;98.70;;;;;;5033165;28;20040;-78
2021/12/18 11:49:07;;;;;;;1.00;0.60;;;9.40;99.00;;;;;;5033217;28;20117;-77
2021/12/18 11:51:33;;;;;;;1.95;0.77;;;9.60;99.40;;;;;;5033706;28;20025;-86
2021/12/18 11:54:03;;;;;;;1.60;0.73;;;9.80;99.50;;;;;;5033761;28;20554;-78
2021/12/18 11:56:49;;;;;;;1.17;0.40;;;10.00;99.50;;;;;;5033526;28;20035;-77
2021/12/18 11:59:42;;;;;;;2.08;0.70;;;10.20;99.20;;;;;;5034267;28;20108;-75
2021/12/18 12:02:11;;;;;;;0.88;0.50;;;10.20;98.10;;;;;;5026850;28;20034;-80
2021/12/18 12:04:58;;;;;;;1.15;0.73;;;10.20;98.20;;;;;;5032614;28;20056;-80
2021/12/18 12:07:26;;;;;;;0.75;0.50;;;10.20;98.10;;;;;;5033413;28;20033;-84
2021/12/18 12:12:55;;;;;;;1.60;0.30;;;10.10;97.60;;;;;;5028598;28;20125;-81
2021/12/18 12:15:24;;;;;;;0.80;0.38;;;10.10;97.50;;;;;;5033516;28;20472;-82
2021/12/18 12:18:06;;;;;;;0.60;0.30;;;9.90;97.30;;;;;;5020823;28;20484;-83
2021/12/18 12:20:33;;;;;;;1.00;0.40;;;9.70;97.90;;;;;;5033213;28;20377;-84
2021/12/18 12:23:01;;;;;;;0.60;0.28;;;9.50;98.30;;;;;;5030390;28;20041;-80
2021/12/18 12:25:39;;;;;;;1.23;0.30;;;9.50;98.80;;;;;;5031264;28;20029;-80
2021/12/18 12:28:08;;;;;;;0.63;0.30;;;9.50;98.60;;;;;;5032399;28;20037;-83
2021/12/18 12:30:59;;;;;;;0.77;0.40;;;9.50;98.70;;;;;;5032139;28;20022;-77
2021/12/18 12:33:30;;;;;;;1.95;0.40;;;9.40;99.00;;;;;;5029567;28;20041;-77
2021/12/18 12:36:04;;;;;;;0.63;0.20;;;9.40;99.40;;;;;;5032359;28;20033;-75
2021/12/18 12:38:56;;;;;;;2.03;0.35;;;9.40;99.50;;;;;;5032522;28;20112;-75
2021/12/18 12:41:47;;;;;;;0.70;0.30;;;9.60;99.70;;;;;;5035975;28;20469;-80
2021/12/18 12:44:23;;;;;;;1.08;0.32;;;9.80;99.60;;;;;;5030787;28;20029;-83
2021/12/18 12:47:09;;;;;;;0.70;0.40;;;10.00;99.40;;;;;;5031604;28;20040;-78
2021/12/18 12:49:34;;;;;;;1.00;0.60;;;10.00;98.90;;;;;;5031855;28;20033;-77
2021/12/18 12:52:03;;;;;;;2.45;0.73;;;9.90;98.70;;;;;;5031977;28;20021;-80
2021/12/18 12:54:51;;;;;;;1.60;0.43;;;9.80;99.00;;;;;;5032108;28;20065;-78
2021/12/18 12:57:23;;;;;;;1.05;0.40;;;10.00;99.20;;;;;;5031235;28;20036;-84
2021/12/18 12:59:57;;;;;;;1.33;0.63;;;10.10;99.30;;;;;;5031512;28;20036;-80
2021/12/18 13:02:28;;;;;;;0.68;0.20;;;10.40;99.30;;;;;;5032067;28;20018;-80
2021/12/18 13:05:14;;;;;;;0.60;0.28;;;10.50;99.20;;;;;;5032520;28;20036;-83
2021/12/18 13:07:50;;;;;;;0.77;0.40;;;10.50;98.50;;;;;;5032661;28;20103;-80
2021/12/18 13:10:19;;;;;;;0.70;0.30;;;10.40;98.40;;;;;;5030278;28;20119;-79
2021/12/18 13:12:58;;;;;;;1.13;0.50;;;10.40;98.60;;;;;;5029579;28;20047;-80
2021/12/18 13:15:25;;;;;;;1.17;0.50;;;10.50;98.50;;;;;;5029939;28;20022;-80
2021/12/18 13:18:08;;;;;;;0.50;0.20;;;10.30;98.30;;;;;;5035336;28;20455;-81
2021/12/18 13:20:46;;;;;;;0.90;0.40;;;10.40;98.70;;;;;;5034947;28;20025;-81
2021/12/18 13:23:17;;;;;;;2.58;0.50;;;10.50;98.80;;;;;;5035366;28;20080;-80
2021/12/18 13:25:55;;;;;;;0.70;0.40;;;10.60;98.60;;;;;;5036065;28;20467;-81
2021/12/18 13:28:23;;;;;;;1.23;0.40;;;10.60;98.40;;;;;;5034346;28;20075;-81
2021/12/18 13:30:51;;;;;;;0.90;0.30;;;10.60;98.30;;;;;;5032792;28;20049;-81
2021/12/18 13:33:23;;;;;;;1.25;0.30;;;10.70;98.20;;;;;;5040056;28;20056;-76
2021/12/18 13:35:58;;;;;;;0.85;0.40;;;10.70;98.10;;;;;;5034987;28;20021;-77
2021/12/18 13:38:32;;;;;;;0.80;0.20;;;10.70;98.30;;;;;;5034911;28;20435;-78
2021/12/18 13:40:58;;;;;;;0.60;0.20;;;10.80;98.30;;;;;;5034395;28;20025;-79
2021/12/18 13:43:25;;;;;;;2.28;0.30;;;10.80;98.10;;;;;;5035387;28;20072;-77
2021/12/18 13:46:03;;;;;;;1.00;0.38;;;10.90;98.30;;;;;;5035015;28;20464;-77
2021/12/18 13:48:33;;;;;;;1.67;0.50;;;10.90;98.10;;;;;;5035483;28;20044;-77
2021/12/18 13:51:04;;;;;;;1.83;0.50;;;10.80;97.40;;;;;;5035041;28;20025;-79
2021/12/18 13:53:33;;;;;;;1.00;0.40;;;10.70;97.80;;;;;;5034656;28;20496;-78